| time (UTC) | temp F | wind direction | speed knots | gust knots | rain 1hr in | rain 24hr in | rain mn in | humidity % | barometer mb |
| 20260507074008 | 64 | 65 | 2.6 | 10.4 | 0.00 | 0.03 | 0.02 | 91 | 1019.7 |
| 20260507073506 | 63 | 32 | 5.2 | 13.9 | 0.00 | 0.03 | 0.02 | 91 | 1019.9 |
| 20260507073006 | 63 | 58 | 6.1 | 13.9 | 0.00 | 0.03 | 0.02 | 91 | 1020.0 |
| 20260507072006 | 64 | 33 | 5.2 | 13.0 | 0.00 | 0.03 | 0.02 | 91 | 1020.0 |
| 20260507071007 | 64 | 43 | 7.8 | 11.3 | 0.00 | 0.03 | 0.02 | 91 | 1020.1 |
| 20260507070507 | 64 | 22 | 4.3 | 11.3 | 0.00 | 0.03 | 0.02 | 90 | 1020.0 |
| 20260507070010 | 64 | 57 | 2.6 | 8.7 | 0.00 | 0.03 | 0.02 | 90 | 1020.1 |
| 20260507065505 | 64 | 48 | 5.2 | 12.2 | 0.00 | 0.03 | 0.02 | 90 | 1020.3 |
| 20260507064505 | 64 | 31 | 5.2 | 12.2 | 0.00 | 0.03 | 0.02 | 89 | 1020.1 |
| 20260507064007 | 64 | 69 | 5.2 | 13.0 | 0.00 | 0.03 | 0.02 | 89 | 1020.4 |
| 20260507063006 | 64 | 52 | 4.3 | 10.4 | 0.00 | 0.03 | 0.02 | 88 | 1020.5 |
| 20260507061506 | 64 | 56 | 5.2 | 11.3 | 0.00 | 0.03 | 0.02 | 87 | 1020.5 |
| 20260507061006 | 64 | 40 | 3.5 | 10.4 | 0.00 | 0.03 | 0.02 | 87 | 1020.4 |
| 20260507060005 | 64 | 46 | 4.3 | 11.3 | 0.00 | 0.03 | 0.02 | 87 | 1020.6 |
| 20260507055509 | 64 | 58 | 4.3 | 12.2 | 0.00 | 0.03 | 0.02 | 87 | 1020.6 |
| 20260507055006 | 64 | 31 | 6.1 | 12.2 | 0.00 | 0.03 | 0.02 | 87 | 1020.6 |
| 20260507053506 | 64 | 53 | 6.1 | 12.2 | 0.00 | 0.03 | 0.02 | 87 | 1020.5 |
| 20260507051505 | 64 | 41 | 4.3 | 8.7 | 0.00 | 0.03 | 0.02 | 86 | 1020.6 |
| 20260507051007 | 64 | 23 | 5.2 | 10.4 | 0.00 | 0.03 | 0.02 | 86 | 1020.5 |
| 20260507050006 | 64 | 31 | 4.3 | 11.3 | 0.00 | 0.03 | 0.02 | 84 | 1020.6 |
| 20260507045505 | 64 | 62 | 4.3 | 10.4 | 0.00 | 0.03 | 0.02 | 84 | 1020.7 |
| 20260507044006 | 65 | 19 | 6.1 | 13.0 | 0.00 | 0.03 | 0.02 | 83 | 1020.7 |
| 20260507043007 | 66 | 24 | 12.2 | 18.2 | 0.00 | 0.03 | 0.02 | 82 | 1020.6 |
| 20260507042005 | 66 | 47 | 8.7 | 15.6 | 0.00 | 0.03 | 0.02 | 81 | 1020.8 |
| 20260507040006 | 67 | 27 | 10.4 | 20.9 | 0.00 | 0.03 | 0.02 | 79 | 1020.9 |
| 20260507034507 | 67 | 10 | 5.2 | 11.3 | 0.00 | 0.03 | 0.02 | 78 | 1020.9 |
| 20260507034006 | 68 | 28 | 6.1 | 13.9 | 0.00 | 0.03 | 0.02 | 78 | 1020.8 |
| 20260507032006 | 68 | 55 | 9.6 | 15.6 | 0.00 | 0.03 | 0.02 | 76 | 1020.9 |
| 20260507031506 | 69 | 28 | 7.0 | 15.6 | 0.00 | 0.03 | 0.02 | 76 | 1020.9 |
| 20260507031006 | 69 | 24 | 7.8 | 13.0 | 0.00 | 0.03 | 0.02 | 76 | 1020.9 |
| 20260507025507 | 69 | 22 | 10.4 | 19.1 | 0.00 | 0.03 | 0.02 | 75 | 1020.9 |
| 20260507025005 | 69 | 18 | 6.1 | 13.9 | 0.00 | 0.03 | 0.02 | 74 | 1021.0 |
| 20260507023506 | 70 | 39 | 7.8 | 15.6 | 0.00 | 0.03 | 0.02 | 73 | 1021.4 |
| 20260507023006 | 70 | 19 | 8.7 | 18.2 | 0.00 | 0.03 | 0.02 | 73 | 1021.4 |
| 20260507021506 | 70 | 16 | 9.6 | 15.6 | 0.00 | 0.03 | 0.02 | 74 | 1021.5 |
| 20260507021005 | 70 | 10 | 7.8 | 13.9 | 0.00 | 0.03 | 0.02 | 75 | 1021.5 |
| 20260507020506 | 70 | 19 | 4.3 | 13.9 | 0.00 | 0.03 | 0.02 | 76 | 1021.5 |
| 20260507020005 | 70 | 40 | 6.1 | 15.6 | 0.00 | 0.03 | 0.02 | 75 | 1021.5 |
| 20260507015007 | 70 | 23 | 13.9 | 21.7 | 0.00 | 0.03 | 0.02 | 74 | 1021.6 |
| 20260507014007 | 70 | 21 | 7.0 | 15.6 | 0.00 | 0.03 | 0.02 | 76 | 1021.6 |
| 20260507012505 | 70 | 16 | 11.3 | 20.0 | 0.00 | 0.03 | 0.02 | 75 | 1021.7 |
| 20260507012005 | 70 | 11 | 14.8 | 22.6 | 0.00 | 0.03 | 0.02 | 74 | 1021.8 |
| 20260507011005 | 70 | 25 | 8.7 | 19.1 | 0.00 | 0.03 | 0.02 | 76 | 1021.8 |
| 20260507010505 | 70 | 15 | 12.2 | 21.7 | 0.00 | 0.03 | 0.02 | 75 | 1021.9 |
| 20260507010005 | 69 | 13 | 15.6 | 21.7 | 0.00 | 0.03 | 0.02 | 76 | 1021.9 |
| 20260507005507 | 69 | 25 | 8.7 | 20.0 | 0.00 | 0.03 | 0.02 | 78 | 1022.1 |
| 20260507004505 | 68 | 53 | 7.8 | 12.2 | 0.00 | 0.03 | 0.02 | 83 | 1022.1 |
| 20260507003007 | 70 | 15 | 13.9 | 22.6 | 0.00 | 0.03 | 0.02 | 76 | 1022.2 |
| 20260507002505 | 70 | 30 | 10.4 | 20.0 | 0.00 | 0.03 | 0.02 | 77 | 1022.4 |
| 20260507002005 | 70 | 342 | 4.3 | 13.9 | 0.00 | 0.03 | 0.02 | 78 | 1022.4 |
| 20260507001004 | 70 | 17 | 10.4 | 20.9 | 0.00 | 0.03 | 0.02 | 79 | 1022.5 |
| 20260507000505 | 70 | 18 | 7.0 | 18.2 | 0.00 | 0.03 | 0.02 | 78 | 1022.3 |
| 20260507000005 | 69 | 24 | 7.0 | 12.2 | 0.00 | 0.03 | 0.02 | 79 | 1022.4 |
| 20260506234005 | 70 | 25 | 7.8 | 13.0 | 0.00 | 0.03 | 0.02 | 78 | 1022.7 |
| 20260506233007 | 69 | 22 | 5.2 | 14.8 | 0.00 | 0.03 | 0.02 | 79 | 1022.6 |
| 20260506232005 | 69 | 14 | 10.4 | 17.4 | 0.00 | 0.03 | 0.02 | 77 | 1022.7 |
| 20260506231505 | 69 | 10 | 12.2 | 20.0 | 0.00 | 0.03 | 0.02 | 77 | 1022.8 |
| 20260506225505 | 69 | 23 | 6.1 | 13.0 | 0.00 | 0.03 | 0.02 | 80 | 1022.9 |
| 20260506225004 | 68 | 50 | 6.1 | 13.0 | 0.00 | 0.03 | 0.02 | 81 | 1022.8 |
| 20260506224005 | 68 | 48 | 4.3 | 13.9 | 0.00 | 0.03 | 0.02 | 79 | 1023.0 |
| 20260506223505 | 68 | 23 | 3.5 | 11.3 | 0.00 | 0.03 | 0.02 | 80 | 1022.8 |
| 20260506223005 | 68 | 59 | 5.2 | 11.3 | 0.00 | 0.03 | 0.02 | 80 | 1023.0 |
| 20260506221505 | 67 | 45 | 5.2 | 12.2 | 0.00 | 0.03 | 0.02 | 83 | 1023.1 |
| 20260506220507 | 66 | 44 | 6.1 | 12.2 | 0.00 | 0.03 | 0.02 | 86 | 1023.1 |
| 20260506215505 | 66 | 66 | 3.5 | 13.0 | 0.00 | 0.03 | 0.02 | 87 | 1023.2 |
| 20260506215006 | 65 | 42 | 4.3 | 7.8 | 0.00 | 0.03 | 0.02 | 90 | 1023.2 |
| 20260506214506 | 65 | 46 | 3.5 | 7.8 | 0.00 | 0.03 | 0.02 | 91 | 1023.2 |
| 20260506212506 | 64 | 73 | 3.5 | 7.8 | 0.00 | 0.03 | 0.02 | 98 | 1023.5 |
| 20260506212004 | 63 | 97 | 4.3 | 7.0 | 0.00 | 0.03 | 0.02 | 99 | 1023.4 |
| 20260506211508 | 63 | 84 | 4.3 | 7.0 | 0.00 | 0.03 | 0.02 | 99 | 1023.6 |
| 20260506211012 | 63 | 75 | 2.6 | 7.8 | 0.00 | 0.03 | 0.02 | 99 | 1023.5 |
| 20260506210513 | 62 | 93 | 2.6 | 7.0 | 0.00 | 0.03 | 0.02 | 99 | 1023.6 |
| 20260506205505 | 62 | 115 | 2.6 | 5.2 | 0.00 | 0.03 | 0.02 | 99 | 1023.7 |
| 20260506204504 | 61 | 94 | 2.6 | 5.2 | 0.00 | 0.03 | 0.02 | 99 | 1023.6 |
| 20260506204004 | 61 | 106 | 2.6 | 6.1 | 0.00 | 0.03 | 0.02 | 99 | 1023.7 |
| 20260506203504 | 60 | 118 | 3.5 | 7.0 | 0.00 | 0.03 | 0.02 | 99 | 1023.8 |
| 20260506201506 | 59 | 103 | 3.5 | 5.2 | 0.00 | 0.03 | 0.02 | 99 | 1023.7 |
| 20260506201004 | 59 | 112 | 4.3 | 7.0 | 0.00 | 0.03 | 0.02 | 99 | 1023.6 |
| 20260506200506 | 58 | 113 | 3.5 | 6.1 | 0.00 | 0.03 | 0.02 | 99 | 1023.7 |
| 20260506200005 | 58 | 105 | 3.5 | 7.0 | 0.00 | 0.03 | 0.02 | 99 | 1023.6 |
| 20260506195504 | 58 | 108 | 4.3 | 7.0 | 0.00 | 0.03 | 0.02 | 99 | 1023.6 |
| 20260506195004 | 58 | 107 | 4.3 | 6.1 | 0.00 | 0.03 | 0.02 | 99 | 1023.7 |
| 20260506194504 | 58 | 116 | 4.3 | 6.1 | 0.00 | 0.03 | 0.02 | 99 | 1023.8 |
| 20260506194006 | 58 | 115 | 4.3 | 5.2 | 0.00 | 0.03 | 0.02 | 99 | 1023.8 |
| 20260506193005 | 58 | 109 | 4.3 | 6.1 | 0.00 | 0.03 | 0.02 | 99 | 1023.7 |
| 20260506192504 | 58 | 116 | 4.3 | 6.1 | 0.00 | 0.03 | 0.02 | 99 | 1023.8 |
| 20260506192006 | 58 | 110 | 2.6 | 5.2 | 0.00 | 0.03 | 0.02 | 99 | 1023.7 |
| 20260506191504 | 58 | 98 | 3.5 | 5.2 | 0.00 | 0.03 | 0.02 | 99 | 1023.7 |
| 20260506191005 | 58 | 101 | 3.5 | 7.8 | 0.00 | 0.03 | 0.02 | 99 | 1023.7 |
| 20260506184505 | 59 | 103 | 4.3 | 6.1 | 0.00 | 0.03 | 0.02 | 99 | 1023.6 |
| 20260506183506 | 59 | 93 | 5.2 | 7.0 | 0.00 | 0.03 | 0.02 | 99 | 1023.7 |
| 20260506181005 | 58 | 95 | 3.5 | 5.2 | 0.00 | 0.02 | 0.02 | 99 | 1023.6 |
| 20260506180504 | 58 | 99 | 3.5 | 6.1 | 0.00 | 0.02 | 0.02 | 99 | 1023.5 |
| 20260506180005 | 58 | 103 | 4.3 | 7.0 | 0.00 | 0.02 | 0.02 | 99 | 1023.6 |
| 20260506175506 | 59 | 103 | 4.3 | 5.2 | 0.00 | 0.02 | 0.02 | 99 | 1023.7 |
| 20260506173506 | 59 | 91 | 5.2 | 6.1 | 0.00 | 0.02 | 0.02 | 99 | 1023.7 |
| 20260506173005 | 59 | 91 | 4.3 | 6.1 | 0.00 | 0.02 | 0.02 | 99 | 1023.7 |
| 20260506172505 | 59 | 95 | 3.5 | 5.2 | 0.00 | 0.02 | 0.02 | 99 | 1023.6 |
| 20260506171506 | 59 | 103 | 3.5 | 5.2 | 0.00 | 0.02 | 0.02 | 99 | 1023.7 |
| 20260506171004 | 59 | 105 | 4.3 | 6.1 | 0.00 | 0.02 | 0.02 | 99 | 1023.7 |
| 20260506170504 | 59 | 115 | 3.5 | 5.2 | 0.00 | 0.02 | 0.02 | 99 | 1023.8 |
| 20260506170007 | 59 | 109 | 2.6 | 4.3 | 0.00 | 0.02 | 0.02 | 99 | 1023.8 |
| 20260506165508 | 60 | 110 | 2.6 | 5.2 | 0.00 | 0.02 | 0.02 | 99 | 1023.8 |
| 20260506165006 | 60 | 109 | 3.5 | 5.2 | 0.00 | 0.02 | 0.02 | 99 | 1023.8 |
| 20260506164507 | 60 | 95 | 2.6 | 4.3 | 0.00 | 0.02 | 0.02 | 99 | 1023.8 |
| 20260506162506 | 60 | 78 | 2.6 | 4.3 | 0.00 | 0.02 | 0.02 | 99 | 1024.2 |
| 20260506161508 | 60 | 104 | 2.6 | 4.3 | 0.00 | 0.02 | 0.02 | 99 | 1024.3 |
| 20260506161006 | 60 | 103 | 2.6 | 4.3 | 0.00 | 0.02 | 0.02 | 99 | 1024.1 |
| 20260506160507 | 60 | 109 | 2.6 | 4.3 | 0.00 | 0.02 | 0.02 | 99 | 1024.3 |
| 20260506155508 | 60 | 117 | 2.6 | 4.3 | 0.00 | 0.02 | 0.02 | 99 | 1024.3 |
| 20260506155007 | 60 | 104 | 2.6 | 4.3 | 0.00 | 0.02 | 0.02 | 99 | 1024.5 |
| 20260506154506 | 60 | 82 | 2.6 | 2.6 | 0.00 | 0.02 | 0.02 | 99 | 1024.3 |
| 20260506154006 | 60 | 56 | 0.9 | 1.7 | 0.00 | 0.02 | 0.02 | 99 | 1024.4 |
| 20260506153006 | 60 | 85 | 1.7 | 2.6 | 0.00 | 0.02 | 0.02 | 99 | 1024.5 |
| 20260506152507 | 60 | 93 | 1.7 | 1.7 | 0.00 | 0.02 | 0.02 | 99 | 1024.5 |
| 20260506152008 | 60 | 107 | 1.7 | 2.6 | 0.00 | 0.02 | 0.02 | 99 | 1024.4 |
| 20260506151507 | 60 | 108 | 1.7 | 4.3 | 0.00 | 0.02 | 0.02 | 99 | 1024.5 |
| 20260506151006 | 60 | 119 | 1.7 | 2.6 | 0.00 | 0.02 | 0.02 | 99 | 1024.5 |
| 20260506150506 | 60 | 117 | 1.7 | 1.7 | 0.00 | 0.02 | 0.02 | 99 | 1024.6 |
| 20260506150006 | 60 | 83 | 0.9 | 1.7 | 0.00 | 0.02 | 0.02 | 99 | 1024.6 |
| 20260506145006 | 60 | 90 | 1.7 | 2.6 | 0.00 | 0.02 | 0.02 | 99 | 1024.5 |
| 20260506144006 | 59 | 91 | 0.9 | 1.7 | 0.00 | 0.02 | 0.02 | 99 | 1024.8 |
| 20260506143006 | 59 | 22 | 0.0 | 0.9 | 0.00 | 0.02 | 0.02 | 99 | 1025.1 |
| 20260506142007 | 59 | 358 | 0.9 | 2.6 | 0.00 | 0.02 | 0.02 | 99 | 1025.1 |
| 20260506141006 | 59 | 73 | 1.7 | 2.6 | 0.00 | 0.02 | 0.02 | 99 | 1025.0 |
| 20260506140506 | 59 | 71 | 1.7 | 4.3 | 0.00 | 0.02 | 0.02 | 99 | 1024.9 |
| 20260506135506 | 59 | 87 | 2.6 | 4.3 | 0.00 | 0.02 | 0.02 | 99 | 1025.2 |
| 20260506134506 | 59 | 95 | 2.6 | 4.3 | 0.00 | 0.02 | 0.02 | 99 | 1025.1 |
| 20260506134007 | 58 | 101 | 2.6 | 6.1 | 0.00 | 0.02 | 0.02 | 99 | 1025.2 |
| 20260506133507 | 58 | 124 | 2.6 | 5.2 | 0.00 | 0.02 | 0.02 | 99 | 1025.3 |
| 20260506133008 | 58 | 119 | 3.5 | 5.2 | 0.00 | 0.02 | 0.02 | 99 | 1025.5 |
| 20260506125008 | 58 | 89 | 2.6 | 4.3 | 0.01 | 0.02 | 0.02 | 99 | 1025.6 |
| 20260506123506 | 59 | 99 | 2.6 | 5.2 | 0.02 | 0.02 | 0.02 | 99 | 1025.6 |
| 20260506123006 | 59 | 87 | 3.5 | 7.0 | 0.02 | 0.02 | 0.02 | 99 | 1025.6 |
| 20260506122006 | 59 | 130 | 2.6 | 6.1 | 0.02 | 0.02 | 0.02 | 99 | 1025.7 |
| 20260506121506 | 59 | 117 | 4.3 | 6.1 | 0.02 | 0.02 | 0.02 | 99 | 1025.9 |
| 20260506121007 | 59 | 46 | 2.6 | 6.1 | 0.01 | 0.02 | 0.01 | 99 | 1025.8 |
| 20260506120006 | 59 | 58 | 0.9 | 2.6 | 0.00 | 0.00 | 0.00 | 99 | 1025.7 |
| 20260506115507 | 59 | 344 | 0.9 | 1.7 | 0.00 | 0.00 | 0.00 | 99 | 1025.8 |
| 20260506115008 | 59 | 37 | 1.7 | 7.0 | 0.00 | 0.00 | 0.00 | 99 | 1025.9 |
| 20260506114506 | 59 | 34 | 2.6 | 6.1 | 0.00 | 0.00 | 0.00 | 99 | 1025.5 |
| 20260506112508 | 59 | 97 | 5.2 | 7.0 | 0.00 | 0.00 | 0.00 | 98 | 1025.8 |
| 20260506112006 | 58 | 91 | 4.3 | 7.0 | 0.00 | 0.00 | 0.00 | 98 | 1025.9 |
| 20260506110006 | 59 | 90 | 2.6 | 4.3 | 0.00 | 0.00 | 0.00 | 97 | 1025.9 |
| 20260506105506 | 59 | 99 | 1.7 | 2.6 | 0.00 | 0.00 | 0.00 | 97 | 1025.9 |
| 20260506104006 | 59 | 84 | 1.7 | 4.3 | 0.00 | 0.00 | 0.00 | 96 | 1026.1 |
| 20260506103506 | 59 | 100 | 2.6 | 4.3 | 0.00 | 0.00 | 0.00 | 96 | 1026.1 |
| 20260506101507 | 60 | 42 | 0.9 | 4.3 | 0.00 | 0.00 | 0.00 | 96 | 1026.2 |
| 20260506101006 | 60 | 98 | 1.7 | 2.6 | 0.00 | 0.00 | 0.00 | 96 | 1026.1 |
| 20260506094507 | 59 | 85 | 2.6 | 4.3 | 0.00 | 0.00 | 0.00 | 96 | 1026.2 |
| 20260506094008 | 59 | 91 | 1.7 | 4.3 | 0.00 | 0.00 | 0.00 | 96 | 1026.1 |
| 20260506092006 | 59 | 94 | 3.5 | 6.1 | 0.00 | 0.00 | 0.00 | 96 | 1026.0 |
| 20260506091008 | 59 | 101 | 3.5 | 5.2 | 0.00 | 0.00 | 0.00 | 95 | 1026.0 |
| 20260506090506 | 60 | 91 | 4.3 | 6.1 | 0.00 | 0.00 | 0.00 | 95 | 1026.0 |
| 20260506090006 | 60 | 94 | 3.5 | 6.1 | 0.00 | 0.00 | 0.00 | 95 | 1026.1 |
| 20260506085506 | 60 | 89 | 4.3 | 7.0 | 0.00 | 0.00 | 0.00 | 95 | 1026.0 |
| 20260506084006 | 60 | 90 | 2.6 | 5.2 | 0.00 | 0.00 | 0.00 | 94 | 1026.1 |
| 20260506083008 | 60 | 88 | 4.3 | 6.1 | 0.00 | 0.00 | 0.00 | 94 | 1026.1 |
| 20260506082506 | 60 | 100 | 4.3 | 7.0 | 0.00 | 0.00 | 0.00 | 94 | 1026.0 |
| 20260506081506 | 60 | 86 | 3.5 | 7.0 | 0.00 | 0.00 | 0.00 | 93 | 1026.1 |
| 20260506081007 | 60 | 99 | 3.5 | 7.0 | 0.00 | 0.00 | 0.00 | 93 | 1026.2 |